Terminal Aerodrome Forecast
Issued by NWS

Home | Current Version | Previous Version | Text Only | Print | Product List | Glossary On
Versions: 1 2 3 4 5 6 7 8 9 10 11 12 13 14 15 16
000
FTUS41 KBOX 182105 AAA
TAFACK
TAF AMD
KACK 182105Z 1821/1918 15007KT P6SM VCSH OVC015
     FM190200 19007KT P6SM VCSH OVC015
     FM190400 21008KT P6SM BKN050
     FM190600 26008G19KT P6SM BKN060
     FM191600 26012G23KT P6SM BKN250=

USA.gov is the U.S. government's official web portal to all federal, state and local government web resources and services.